METAR Data
IDs: Format: Raw Decoded Include TAF

Data at: 2014 UTC 26 Sep 2021

PATE 261956Z AUTO 27011KT 4SM -SN BR FEW011 BKN020 OVC036 01/M01 A2979 RMK AO2 UPB13E15B35E46RAB46E49SNB15E32B49 SLP093 P0000 T00061006 FZRANO